sensor_id;sensor_type;location;lat;lon;timestamp;pressure;altitude;pressure_sealevel;temperature;humidity
40982;BME280;26708;50.304;19.028;2023-04-02T00:01:34;97282.66;;;11.34;65.90
40982;BME280;26708;50.304;19.028;2023-04-02T00:06:32;97286.31;;;11.27;65.82
40982;BME280;26708;50.304;19.028;2023-04-02T00:08:40;97287.25;;;11.24;66.13
40982;BME280;26708;50.304;19.028;2023-04-02T00:10:47;97288.16;;;11.23;66.04
40982;BME280;26708;50.304;19.028;2023-04-02T00:13:03;97297.81;;;11.21;66.14
40982;BME280;26708;50.304;19.028;2023-04-02T00:15:20;97297.00;;;11.19;66.07
40982;BME280;26708;50.304;19.028;2023-04-02T00:17:25;97297.03;;;11.18;66.20
40982;BME280;26708;50.304;19.028;2023-04-02T00:19:35;97303.28;;;11.12;66.02
40982;BME280;26708;50.304;19.028;2023-04-02T00:21:45;97292.16;;;11.04;66.13
40982;BME280;26708;50.304;19.028;2023-04-02T00:23:53;97296.72;;;10.96;66.37
40982;BME280;26708;50.304;19.028;2023-04-02T00:25:59;97270.25;;;10.70;66.86
40982;BME280;26708;50.304;19.028;2023-04-02T00:28:11;97297.88;;;10.83;66.65
40982;BME280;26708;50.304;19.028;2023-04-02T00:30:17;97279.22;;;10.62;67.17
40982;BME280;26708;50.304;19.028;2023-04-02T00:32:26;97288.81;;;10.61;67.26
40982;BME280;26708;50.304;19.028;2023-04-02T00:34:36;97304.50;;;10.61;67.36
40982;BME280;26708;50.304;19.028;2023-04-02T00:36:42;97293.22;;;10.59;67.68
40982;BME280;26708;50.304;19.028;2023-04-02T00:38:58;97303.69;;;10.59;67.62
40982;BME280;26708;50.304;19.028;2023-04-02T00:41:06;97289.84;;;10.54;67.74
40982;BME280;26708;50.304;19.028;2023-04-02T00:43:15;97288.00;;;10.59;67.86
40982;BME280;26708;50.304;19.028;2023-04-02T00:45:25;97299.94;;;10.69;67.69
40982;BME280;26708;50.304;19.028;2023-04-02T00:47:34;97307.69;;;10.74;67.50
40982;BME280;26708;50.304;19.028;2023-04-02T00:49:42;97307.72;;;10.72;67.40
40982;BME280;26708;50.304;19.028;2023-04-02T00:51:52;97306.00;;;10.71;67.27
40982;BME280;26708;50.304;19.028;2023-04-02T00:54:04;97309.47;;;10.73;67.36
40982;BME280;26708;50.304;19.028;2023-04-02T00:56:22;97292.25;;;10.63;67.24
40982;BME280;26708;50.304;19.028;2023-04-02T00:58:35;97267.16;;;10.55;67.23
40982;BME280;26708;50.304;19.028;2023-04-02T01:00:47;97295.66;;;10.67;67.24
40982;BME280;26708;50.304;19.028;2023-04-02T01:03:23;97309.38;;;10.76;67.25
40982;BME280;26708;50.304;19.028;2023-04-02T01:05:35;97323.22;;;10.81;67.22
40982;BME280;26708;50.304;19.028;2023-04-02T01:07:56;97320.66;;;10.78;67.06
40982;BME280;26708;50.304;19.028;2023-04-02T01:10:23;97309.53;;;10.70;67.34
40982;BME280;26708;50.304;19.028;2023-04-02T01:13:01;97323.38;;;10.75;67.17
40982;BME280;26708;50.304;19.028;2023-04-02T01:15:24;97285.53;;;10.52;67.49
40982;BME280;26708;50.304;19.028;2023-04-02T01:17:47;97321.66;;;10.74;67.27
40982;BME280;26708;50.304;19.028;2023-04-02T01:20:37;97325.22;;;10.70;67.21
40982;BME280;26708;50.304;19.028;2023-04-02T01:23:03;97323.63;;;10.63;67.39
40982;BME280;26708;50.304;19.028;2023-04-02T01:25:19;97329.75;;;10.62;67.68
40982;BME280;26708;50.304;19.028;2023-04-02T01:27:37;97326.31;;;10.62;67.72
40982;BME280;26708;50.304;19.028;2023-04-02T01:29:53;97322.81;;;10.61;67.54
40982;BME280;26708;50.304;19.028;2023-04-02T01:32:05;97328.94;;;10.62;67.82
40982;BME280;26708;50.304;19.028;2023-04-02T01:34:17;97323.75;;;10.59;67.64
40982;BME280;26708;50.304;19.028;2023-04-02T01:36:35;97323.00;;;10.54;67.48
40982;BME280;26708;50.304;19.028;2023-04-02T01:38:58;97325.75;;;10.48;67.70
40982;BME280;26708;50.304;19.028;2023-04-02T01:41:21;97334.63;;;10.41;67.97
40982;BME280;26708;50.304;19.028;2023-04-02T01:43:38;97331.22;;;10.37;68.05
40982;BME280;26708;50.304;19.028;2023-04-02T01:45:51;97336.53;;;10.33;68.16
40982;BME280;26708;50.304;19.028;2023-04-02T01:47:56;97317.56;;;10.23;68.36
40982;BME280;26708;50.304;19.028;2023-04-02T01:50:06;97345.09;;;10.39;68.50
40982;BME280;26708;50.304;19.028;2023-04-02T01:52:34;97341.50;;;10.45;68.36
40982;BME280;26708;50.304;19.028;2023-04-02T01:54:44;97301.69;;;10.32;67.99
40982;BME280;26708;50.304;19.028;2023-04-02T01:56:51;97328.34;;;10.49;67.89
40982;BME280;26708;50.304;19.028;2023-04-02T01:58:59;97283.44;;;10.29;67.84
40982;BME280;26708;50.304;19.028;2023-04-02T02:01:15;97331.69;;;10.54;67.68
40982;BME280;26708;50.304;19.028;2023-04-02T02:03:27;97340.56;;;10.47;67.42
40982;BME280;26708;50.304;19.028;2023-04-02T02:05:32;97344.16;;;10.43;67.63
40982;BME280;26708;50.304;19.028;2023-04-02T02:07:37;97339.09;;;10.36;67.77
40982;BME280;26708;50.304;19.028;2023-04-02T02:09:44;97347.09;;;10.30;67.86
40982;BME280;26708;50.304;19.028;2023-04-02T02:11:51;97291.25;;;9.91;68.15
40982;BME280;26708;50.304;19.028;2023-04-02T02:13:58;97353.34;;;10.21;67.98
40982;BME280;26708;50.304;19.028;2023-04-02T02:16:09;97349.97;;;10.16;68.15
40982;BME280;26708;50.304;19.028;2023-04-02T02:18:21;97354.38;;;10.14;68.00
40982;BME280;26708;50.304;19.028;2023-04-02T02:20:28;97356.88;;;10.19;68.35
40982;BME280;26708;50.304;19.028;2023-04-02T02:22:37;97362.03;;;10.22;68.22
40982;BME280;26708;50.304;19.028;2023-04-02T02:24:47;97344.72;;;10.16;68.06
40982;BME280;26708;50.304;19.028;2023-04-02T02:27:12;97343.84;;;10.17;67.70
40982;BME280;26708;50.304;19.028;2023-04-02T02:29:47;97346.50;;;10.16;67.81
40982;BME280;26708;50.304;19.028;2023-04-02T02:31:59;97320.63;;;10.02;67.20
40982;BME280;26708;50.304;19.028;2023-04-02T02:34:14;97296.66;;;9.82;67.11
40982;BME280;26708;50.304;19.028;2023-04-02T02:36:30;97356.00;;;10.20;67.04
40982;BME280;26708;50.304;19.028;2023-04-02T02:38:48;97362.00;;;10.23;67.05
40982;BME280;26708;50.304;19.028;2023-04-02T02:41:07;97359.34;;;10.26;66.64
40982;BME280;26708;50.304;19.028;2023-04-02T02:43:21;97362.78;;;10.28;66.62
40982;BME280;26708;50.304;19.028;2023-04-02T02:45:30;97361.97;;;10.26;66.66
40982;BME280;26708;50.304;19.028;2023-04-02T02:47:45;97364.50;;;10.31;66.55
40982;BME280;26708;50.304;19.028;2023-04-02T02:49:55;97348.00;;;10.27;66.36
40982;BME280;26708;50.304;19.028;2023-04-02T02:52:12;97338.47;;;10.23;66.42
40982;BME280;26708;50.304;19.028;2023-04-02T02:54:38;97374.63;;;10.46;66.14
40982;BME280;26708;50.304;19.028;2023-04-02T02:56:53;97370.19;;;10.49;65.74
40982;BME280;26708;50.304;19.028;2023-04-02T02:59:06;97376.34;;;10.47;65.53
40982;BME280;26708;50.304;19.028;2023-04-02T03:01:15;97370.38;;;10.40;65.51
40982;BME280;26708;50.304;19.028;2023-04-02T03:03:30;97384.25;;;10.44;65.25
40982;BME280;26708;50.304;19.028;2023-04-02T03:05:40;97381.72;;;10.39;65.28
40982;BME280;26708;50.304;19.028;2023-04-02T03:07:55;97363.88;;;10.18;65.13
40982;BME280;26708;50.304;19.028;2023-04-02T03:10:14;97386.16;;;10.36;65.58
40982;BME280;26708;50.304;19.028;2023-04-02T03:12:42;97382.63;;;10.38;65.56
40982;BME280;26708;50.304;19.028;2023-04-02T03:14:59;97386.94;;;10.39;65.18
40982;BME280;26708;50.304;19.028;2023-04-02T03:17:16;97393.97;;;10.37;65.43
40982;BME280;26708;50.304;19.028;2023-04-02T03:19:37;97364.59;;;10.25;65.49
40982;BME280;26708;50.304;19.028;2023-04-02T03:21:51;97354.13;;;10.26;65.41
40982;BME280;26708;50.304;19.028;2023-04-02T03:24:11;97380.00;;;10.38;65.24
40982;BME280;26708;50.304;19.028;2023-04-02T03:26:27;97391.97;;;10.50;65.25
40982;BME280;26708;50.304;19.028;2023-04-02T03:28:44;97382.53;;;10.43;65.11
40982;BME280;26708;50.304;19.028;2023-04-02T03:31:00;97394.47;;;10.54;64.95
40982;BME280;26708;50.304;19.028;2023-04-02T03:33:15;97394.44;;;10.57;65.01
40982;BME280;26708;50.304;19.028;2023-04-02T03:35:34;97396.94;;;10.62;64.77
40982;BME280;26708;50.304;19.028;2023-04-02T03:37:50;97406.53;;;10.61;64.78
40982;BME280;26708;50.304;19.028;2023-04-02T03:40:06;97409.16;;;10.61;64.94
40982;BME280;26708;50.304;19.028;2023-04-02T03:42:22;97403.91;;;10.61;64.62
40982;BME280;26708;50.304;19.028;2023-04-02T03:44:38;97404.91;;;10.57;64.64
40982;BME280;26708;50.304;19.028;2023-04-02T03:46:54;97417.09;;;10.57;64.96
40982;BME280;26708;50.304;19.028;2023-04-02T03:49:09;97369.66;;;10.32;65.13
40982;BME280;26708;50.304;19.028;2023-04-02T03:51:27;97397.38;;;10.42;64.84
40982;BME280;26708;50.304;19.028;2023-04-02T03:53:37;97420.66;;;10.53;64.84
40982;BME280;26708;50.304;19.028;2023-04-02T03:55:44;97401.03;;;10.32;64.98
40982;BME280;26708;50.304;19.028;2023-04-02T03:57:58;97425.97;;;10.50;65.13
40982;BME280;26708;50.304;19.028;2023-04-02T04:00:18;97419.81;;;10.52;65.17
40982;BME280;26708;50.304;19.028;2023-04-02T04:02:40;97388.94;;;10.28;64.77
40982;BME280;26708;50.304;19.028;2023-04-02T04:04:52;97410.53;;;10.38;64.90
40982;BME280;26708;50.304;19.028;2023-04-02T04:07:02;97431.38;;;10.42;65.27
40982;BME280;26708;50.304;19.028;2023-04-02T04:09:10;97436.56;;;10.44;65.55
40982;BME280;26708;50.304;19.028;2023-04-02T04:11:30;97433.09;;;10.43;65.57
40982;BME280;26708;50.304;19.028;2023-04-02T04:13:48;97437.34;;;10.47;65.58
40982;BME280;26708;50.304;19.028;2023-04-02T04:16:01;97421.03;;;10.36;65.40
40982;BME280;26708;50.304;19.028;2023-04-02T04:18:19;97440.03;;;10.46;65.20
40982;BME280;26708;50.304;19.028;2023-04-02T04:20:42;97442.66;;;10.44;65.41
40982;BME280;26708;50.304;19.028;2023-04-02T04:23:16;97432.38;;;10.35;65.48
40982;BME280;26708;50.304;19.028;2023-04-02T04:25:28;97442.00;;;10.33;65.45
40982;BME280;26708;50.304;19.028;2023-04-02T04:27:47;97446.34;;;10.34;65.79
40982;BME280;26708;50.304;19.028;2023-04-02T04:30:15;97445.47;;;10.34;65.56
40982;BME280;26708;50.304;19.028;2023-04-02T04:32:31;97427.47;;;10.20;65.80
40982;BME280;26708;50.304;19.028;2023-04-02T04:34:53;97451.50;;;10.39;65.99
40982;BME280;26708;50.304;19.028;2023-04-02T04:37:05;97412.72;;;10.16;65.94
40982;BME280;26708;50.304;19.028;2023-04-02T04:39:22;97441.16;;;10.31;65.65
40982;BME280;26708;50.304;19.028;2023-04-02T04:41:38;97448.00;;;10.38;65.81
40982;BME280;26708;50.304;19.028;2023-04-02T04:43:50;97465.38;;;10.42;65.61
40982;BME280;26708;50.304;19.028;2023-04-02T04:46:04;97437.97;;;10.17;65.83
40982;BME280;26708;50.304;19.028;2023-04-02T04:48:17;97475.94;;;10.36;66.06
40982;BME280;26708;50.304;19.028;2023-04-02T04:50:32;97482.16;;;10.31;65.89
40982;BME280;26708;50.304;19.028;2023-04-02T04:52:42;97447.69;;;10.09;66.28
40982;BME280;26708;50.304;19.028;2023-04-02T04:54:51;97488.34;;;10.25;66.41
40982;BME280;26708;50.304;19.028;2023-04-02T04:57:02;97481.56;;;10.15;66.13
40982;BME280;26708;50.304;19.028;2023-04-02T04:59:16;97473.28;;;9.92;66.24
40982;BME280;26708;50.304;19.028;2023-04-02T05:01:33;97476.06;;;9.83;66.36
40982;BME280;26708;50.304;19.028;2023-04-02T05:03:50;97496.09;;;9.83;66.41
40982;BME280;26708;50.304;19.028;2023-04-02T05:06:08;97478.09;;;9.63;66.49
40982;BME280;26708;50.304;19.028;2023-04-02T05:08:21;97484.28;;;9.59;66.40
40982;BME280;26708;50.304;19.028;2023-04-02T05:10:41;97499.19;;;9.53;67.09
40982;BME280;26708;50.304;19.028;2023-04-02T05:12:58;97503.72;;;9.42;67.37
40982;BME280;26708;50.304;19.028;2023-04-02T05:15:15;97413.25;;;8.85;67.58
40982;BME280;26708;50.304;19.028;2023-04-02T05:17:30;97507.22;;;9.39;67.74
40982;BME280;26708;50.304;19.028;2023-04-02T05:19:46;97509.06;;;9.33;67.60
40982;BME280;26708;50.304;19.028;2023-04-02T05:22:04;97486.84;;;9.05;68.02
40982;BME280;26708;50.304;19.028;2023-04-02T05:24:49;97519.78;;;9.15;68.48
40982;BME280;26708;50.304;19.028;2023-04-02T05:27:20;97522.41;;;9.15;68.54
40982;BME280;26708;50.304;19.028;2023-04-02T05:29:35;97524.13;;;9.17;68.85
40982;BME280;26708;50.304;19.028;2023-04-02T05:31:48;97532.78;;;9.16;68.16
40982;BME280;26708;50.304;19.028;2023-04-02T05:34:01;97497.56;;;8.87;67.56
40982;BME280;26708;50.304;19.028;2023-04-02T05:36:09;97545.09;;;9.08;67.27
40982;BME280;26708;50.304;19.028;2023-04-02T05:38:24;97547.88;;;8.95;67.18
40982;BME280;26708;50.304;19.028;2023-04-02T05:40:37;97553.22;;;8.84;67.45
40982;BME280;26708;50.304;19.028;2023-04-02T05:42:50;97547.22;;;8.79;67.95
40982;BME280;26708;50.304;19.028;2023-04-02T05:45:07;97562.00;;;8.77;67.62
40982;BME280;26708;50.304;19.028;2023-04-02T05:47:28;97547.38;;;8.66;67.54
40982;BME280;26708;50.304;19.028;2023-04-02T05:49:46;97543.19;;;8.51;68.15
40982;BME280;26708;50.304;19.028;2023-04-02T05:52:01;97529.44;;;8.36;67.87
40982;BME280;26708;50.304;19.028;2023-04-02T05:54:18;97508.75;;;8.21;68.23
40982;BME280;26708;50.304;19.028;2023-04-02T05:56:36;97572.66;;;8.58;68.59
40982;BME280;26708;50.304;19.028;2023-04-02T05:58:51;97533.88;;;8.26;67.51
40982;BME280;26708;50.304;19.028;2023-04-02T06:01:21;97582.47;;;8.36;66.87
40982;BME280;26708;50.304;19.028;2023-04-02T06:03:44;97589.56;;;8.18;67.07
40982;BME280;26708;50.304;19.028;2023-04-02T06:06:00;97571.41;;;8.10;67.12
40982;BME280;26708;50.304;19.028;2023-04-02T06:08:18;97568.97;;;7.91;67.05
40982;BME280;26708;50.304;19.028;2023-04-02T06:10:30;97570.75;;;7.84;67.15
40982;BME280;26708;50.304;19.028;2023-04-02T06:12:43;97580.31;;;7.82;67.08
40982;BME280;26708;50.304;19.028;2023-04-02T06:14:58;97609.72;;;7.96;67.51
40982;BME280;26708;50.304;19.028;2023-04-02T06:17:05;97614.06;;;7.99;67.70
40982;BME280;26708;50.304;19.028;2023-04-02T06:19:17;97614.84;;;8.05;67.82
40982;BME280;26708;50.304;19.028;2023-04-02T06:21:26;97622.69;;;8.05;66.55
40982;BME280;26708;50.304;19.028;2023-04-02T06:23:37;97628.78;;;8.03;66.69
40982;BME280;26708;50.304;19.028;2023-04-02T06:25:52;97636.63;;;8.01;66.13
40982;BME280;26708;50.304;19.028;2023-04-02T06:28:07;97639.25;;;7.92;65.51
40982;BME280;26708;50.304;19.028;2023-04-02T06:30:32;97640.19;;;7.85;65.54
40982;BME280;26708;50.304;19.028;2023-04-02T06:32:40;97651.53;;;7.79;65.40
40982;BME280;26708;50.304;19.028;2023-04-02T06:34:49;97664.59;;;7.74;65.37
40982;BME280;26708;50.304;19.028;2023-04-02T06:36:56;97665.50;;;7.67;66.00
40982;BME280;26708;50.304;19.028;2023-04-02T06:39:09;97666.38;;;7.62;65.76
40982;BME280;26708;50.304;19.028;2023-04-02T06:41:23;97682.91;;;7.55;65.98
40982;BME280;26708;50.304;19.028;2023-04-02T06:43:45;97679.47;;;7.50;66.39
40982;BME280;26708;50.304;19.028;2023-04-02T06:46:08;97678.63;;;7.45;66.25
40982;BME280;26708;50.304;19.028;2023-04-02T06:48:35;97687.31;;;7.42;66.84
40982;BME280;26708;50.304;19.028;2023-04-02T06:50:47;97687.31;;;7.44;66.79
40982;BME280;26708;50.304;19.028;2023-04-02T06:52:57;97623.31;;;7.02;65.76
40982;BME280;26708;50.304;19.028;2023-04-02T06:55:28;97671.81;;;7.20;65.31
40982;BME280;26708;50.304;19.028;2023-04-02T06:57:40;97702.13;;;7.24;65.54
40982;BME280;26708;50.304;19.028;2023-04-02T06:59:45;97702.16;;;7.18;65.76
40982;BME280;26708;50.304;19.028;2023-04-02T07:02:01;97641.59;;;6.86;65.97
40982;BME280;26708;50.304;19.028;2023-04-02T07:04:09;97717.72;;;7.33;65.96
40982;BME280;26708;50.304;19.028;2023-04-02T07:06:19;97717.72;;;7.36;65.22
40982;BME280;26708;50.304;19.028;2023-04-02T07:08:28;97710.78;;;7.35;65.21
40982;BME280;26708;50.304;19.028;2023-04-02T07:10:33;97722.03;;;7.38;65.09
40982;BME280;26708;50.304;19.028;2023-04-02T07:12:38;97728.09;;;7.43;65.33
40982;BME280;26708;50.304;19.028;2023-04-02T07:14:57;97728.09;;;7.46;65.24
40982;BME280;26708;50.304;19.028;2023-04-02T07:17:04;97735.88;;;7.45;64.49
40982;BME280;26708;50.304;19.028;2023-04-02T07:19:16;97674.47;;;7.05;64.21
40982;BME280;26708;50.304;19.028;2023-04-02T07:21:27;97693.53;;;7.08;63.89
40982;BME280;26708;50.304;19.028;2023-04-02T07:23:31;97748.09;;;7.34;63.92
40982;BME280;26708;50.304;19.028;2023-04-02T07:25:36;97748.97;;;7.33;64.35
40982;BME280;26708;50.304;19.028;2023-04-02T07:27:41;97752.44;;;7.29;64.45
40982;BME280;26708;50.304;19.028;2023-04-02T07:29:46;97761.97;;;7.27;63.98
40982;BME280;26708;50.304;19.028;2023-04-02T07:31:51;97760.28;;;7.17;64.26
40982;BME280;26708;50.304;19.028;2023-04-02T07:33:59;97768.09;;;7.09;63.98
40982;BME280;26708;50.304;19.028;2023-04-02T07:36:04;97772.44;;;7.01;63.96
40982;BME280;26708;50.304;19.028;2023-04-02T07:38:09;97773.31;;;7.00;64.43
40982;BME280;26708;50.304;19.028;2023-04-02T07:40:17;97778.53;;;6.90;63.91
40982;BME280;26708;50.304;19.028;2023-04-02T07:42:24;97785.47;;;6.82;64.19
40982;BME280;26708;50.304;19.028;2023-04-02T07:44:28;97788.94;;;6.78;64.69
40982;BME280;26708;50.304;19.028;2023-04-02T07:46:34;97774.19;;;6.60;65.10
40982;BME280;26708;50.304;19.028;2023-04-02T07:48:38;97794.97;;;6.72;65.67
40982;BME280;26708;50.304;19.028;2023-04-02T07:50:45;97800.22;;;6.75;65.51
40982;BME280;26708;50.304;19.028;2023-04-02T07:52:51;97762.06;;;6.55;65.80
40982;BME280;26708;50.304;19.028;2023-04-02T07:54:55;97813.19;;;6.78;64.67
40982;BME280;26708;50.304;19.028;2023-04-02T07:57:02;97723.91;;;6.21;65.08
40982;BME280;26708;50.304;19.028;2023-04-02T07:59:08;97769.84;;;6.43;64.70
40982;BME280;26708;50.304;19.028;2023-04-02T08:01:18;97825.28;;;6.69;64.71
40982;BME280;26708;50.304;19.028;2023-04-02T08:03:25;97788.91;;;6.46;64.61
40982;BME280;26708;50.304;19.028;2023-04-02T08:05:31;97831.34;;;6.68;64.29
40982;BME280;26708;50.304;19.028;2023-04-02T08:07:38;97816.63;;;6.50;63.73
40982;BME280;26708;50.304;19.028;2023-04-02T08:09:43;97843.47;;;6.55;63.21
40982;BME280;26708;50.304;19.028;2023-04-02T08:11:48;97837.44;;;6.50;64.02
40982;BME280;26708;50.304;19.028;2023-04-02T08:13:53;97834.78;;;6.43;63.48
40982;BME280;26708;50.304;19.028;2023-04-02T08:15:58;97853.84;;;6.42;63.27
40982;BME280;26708;50.304;19.028;2023-04-02T08:18:04;97749.81;;;5.77;64.03
40982;BME280;26708;50.304;19.028;2023-04-02T08:20:14;97856.44;;;6.40;64.94
40982;BME280;26708;50.304;19.028;2023-04-02T08:22:19;97861.66;;;6.48;64.49
40982;BME280;26708;50.304;19.028;2023-04-02T08:24:27;97837.38;;;6.29;63.43
40982;BME280;26708;50.304;19.028;2023-04-02T08:26:32;97865.13;;;6.50;64.04
40982;BME280;26708;50.304;19.028;2023-04-02T08:28:37;97879.00;;;6.55;63.48
40982;BME280;26708;50.304;19.028;2023-04-02T08:30:43;97884.22;;;6.62;63.93
40982;BME280;26708;50.304;19.028;2023-04-02T08:32:49;97875.56;;;6.60;63.35
40982;BME280;26708;50.304;19.028;2023-04-02T08:34:53;97878.16;;;6.68;63.70
40982;BME280;26708;50.304;19.028;2023-04-02T08:36:58;97885.94;;;6.72;63.56
40982;BME280;26708;50.304;19.028;2023-04-02T08:39:03;97888.59;;;6.74;62.94
40982;BME280;26708;50.304;19.028;2023-04-02T08:41:22;97895.50;;;6.72;62.85
40982;BME280;26708;50.304;19.028;2023-04-02T08:43:59;97895.53;;;6.76;63.14
40982;BME280;26708;50.304;19.028;2023-04-02T08:46:25;97899.84;;;6.76;62.65
40982;BME280;26708;50.304;19.028;2023-04-02T08:48:41;97905.94;;;6.76;62.68
40982;BME280;26708;50.304;19.028;2023-04-02T08:50:53;97909.41;;;6.78;62.51
40982;BME280;26708;50.304;19.028;2023-04-02T08:53:02;97920.66;;;6.76;62.51
40982;BME280;26708;50.304;19.028;2023-04-02T08:55:18;97920.66;;;6.80;62.72
40982;BME280;26708;50.304;19.028;2023-04-02T08:57:45;97919.84;;;6.86;63.08
40982;BME280;26708;50.304;19.028;2023-04-02T09:00:00;97912.03;;;6.93;63.21
40982;BME280;26708;50.304;19.028;2023-04-02T09:02:28;97876.44;;;6.70;62.25
40982;BME280;26708;50.304;19.028;2023-04-02T09:04:39;97919.81;;;6.93;62.88
40982;BME280;26708;50.304;19.028;2023-04-02T09:06:45;97918.94;;;6.88;62.18
40982;BME280;26708;50.304;19.028;2023-04-02T09:08:55;97867.72;;;6.57;62.73
40982;BME280;26708;50.304;19.028;2023-04-02T09:11:08;97894.66;;;6.77;63.18
40982;BME280;26708;50.304;19.028;2023-04-02T09:13:26;97916.34;;;6.82;62.37
40982;BME280;26708;50.304;19.028;2023-04-02T09:15:34;97935.44;;;6.95;62.21
40982;BME280;26708;50.304;19.028;2023-04-02T09:17:40;97929.34;;;6.90;62.67
40982;BME280;26708;50.304;19.028;2023-04-02T09:19:52;97937.16;;;6.94;63.16
40982;BME280;26708;50.304;19.028;2023-04-02T09:22:06;97901.59;;;6.75;62.49
40982;BME280;26708;50.304;19.028;2023-04-02T09:24:18;97853.88;;;6.48;62.41
40982;BME280;26708;50.304;19.028;2023-04-02T09:26:26;97892.00;;;6.67;62.09
40982;BME280;26708;50.304;19.028;2023-04-02T09:28:37;97951.03;;;6.96;62.19
40982;BME280;26708;50.304;19.028;2023-04-02T09:31:03;97967.53;;;6.94;62.66
40982;BME280;26708;50.304;19.028;2023-04-02T09:33:39;97969.25;;;6.95;62.56
40982;BME280;26708;50.304;19.028;2023-04-02T09:35:55;97971.81;;;6.92;62.81
40982;BME280;26708;50.304;19.028;2023-04-02T09:38:18;97974.44;;;6.86;62.20
40982;BME280;26708;50.304;19.028;2023-04-02T09:40:30;97953.53;;;6.65;62.24
40982;BME280;26708;50.304;19.028;2023-04-02T09:42:37;97983.94;;;6.76;62.55
40982;BME280;26708;50.304;19.028;2023-04-02T09:44:44;97960.47;;;6.64;62.89
40982;BME280;26708;50.304;19.028;2023-04-02T09:46:52;97953.53;;;6.59;63.42
40982;BME280;26708;50.304;19.028;2023-04-02T09:49:01;97964.81;;;6.64;62.77
40982;BME280;26708;50.304;19.028;2023-04-02T09:51:11;97995.16;;;6.71;63.22
40982;BME280;26708;50.304;19.028;2023-04-02T09:53:29;97971.69;;;6.57;63.77
40982;BME280;26708;50.304;19.028;2023-04-02T09:55:37;97987.38;;;6.71;63.52
40982;BME280;26708;50.304;19.028;2023-04-02T09:57:42;98000.34;;;6.68;63.53
40982;BME280;26708;50.304;19.028;2023-04-02T10:00:13;97999.47;;;6.69;64.09
40982;BME280;26708;50.304;19.028;2023-04-02T10:02:28;98006.47;;;6.74;64.40
40982;BME280;26708;50.304;19.028;2023-04-02T10:04:36;98008.19;;;6.74;64.61
40982;BME280;26708;50.304;19.028;2023-04-02T10:06:49;98010.75;;;6.71;64.13
40982;BME280;26708;50.304;19.028;2023-04-02T10:08:55;98012.47;;;6.67;63.83
40982;BME280;26708;50.304;19.028;2023-04-02T10:11:01;98009.84;;;6.60;64.17
40982;BME280;26708;50.304;19.028;2023-04-02T10:13:18;97994.19;;;6.46;63.53
40982;BME280;26708;50.304;19.028;2023-04-02T10:15:37;98026.31;;;6.56;63.82
40982;BME280;26708;50.304;19.028;2023-04-02T10:17:54;97979.41;;;6.32;63.89
40982;BME280;26708;50.304;19.028;2023-04-02T10:20:16;98026.28;;;6.57;64.07
40982;BME280;26708;50.304;19.028;2023-04-02T10:22:27;98021.94;;;6.49;64.45
40982;BME280;26708;50.304;19.028;2023-04-02T10:24:32;98035.78;;;6.49;64.49
40982;BME280;26708;50.304;19.028;2023-04-02T10:26:56;98028.88;;;6.47;64.91
40982;BME280;26708;50.304;19.028;2023-04-02T10:29:37;98022.75;;;6.45;64.04
40982;BME280;26708;50.304;19.028;2023-04-02T10:31:59;98047.91;;;6.47;64.41
40982;BME280;26708;50.304;19.028;2023-04-02T10:34:20;98050.53;;;6.52;64.52
40982;BME280;26708;50.304;19.028;2023-04-02T10:36:45;98047.09;;;6.56;64.96
40982;BME280;26708;50.304;19.028;2023-04-02T10:39:01;98048.81;;;6.57;65.10
40982;BME280;26708;50.304;19.028;2023-04-02T10:41:28;98050.56;;;6.58;64.97
40982;BME280;26708;50.304;19.028;2023-04-02T10:43:56;98054.03;;;6.57;65.06
40982;BME280;26708;50.304;19.028;2023-04-02T10:46:17;98043.56;;;6.49;64.61
40982;BME280;26708;50.304;19.028;2023-04-02T10:48:37;98055.75;;;6.58;64.72
40982;BME280;26708;50.304;19.028;2023-04-02T10:50:58;98066.16;;;6.58;64.20
40982;BME280;26708;50.304;19.028;2023-04-02T10:53:13;98064.38;;;6.54;63.95
40982;BME280;26708;50.304;19.028;2023-04-02T10:55:24;98066.16;;;6.55;64.56
40982;BME280;26708;50.304;19.028;2023-04-02T10:57:36;98047.03;;;6.44;64.68
40982;BME280;26708;50.304;19.028;2023-04-02T10:59:45;98064.38;;;6.51;64.91
40982;BME280;26708;50.304;19.028;2023-04-02T11:01:58;98078.28;;;6.57;65.01
40982;BME280;26708;50.304;19.028;2023-04-02T11:04:18;98087.84;;;6.58;65.43
40982;BME280;26708;50.304;19.028;2023-04-02T11:06:40;98041.78;;;6.36;65.52
40982;BME280;26708;50.304;19.028;2023-04-02T11:08:54;98080.94;;;6.62;65.06
40982;BME280;26708;50.304;19.028;2023-04-02T11:11:11;98091.28;;;6.59;64.98
40982;BME280;26708;50.304;19.028;2023-04-02T11:13:24;98094.75;;;6.58;64.98
40982;BME280;26708;50.304;19.028;2023-04-02T11:15:35;98090.38;;;6.51;64.77
40982;BME280;26708;50.304;19.028;2023-04-02T11:17:42;98081.66;;;6.43;64.89
40982;BME280;26708;50.304;19.028;2023-04-02T11:19:50;98110.31;;;6.56;64.21
40982;BME280;26708;50.304;19.028;2023-04-02T11:21:58;98091.19;;;6.41;64.31
40982;BME280;26708;50.304;19.028;2023-04-02T11:24:21;98088.56;;;6.38;64.59
40982;BME280;26708;50.304;19.028;2023-04-02T11:26:36;98113.81;;;6.57;64.80
40982;BME280;26708;50.304;19.028;2023-04-02T11:28:49;98125.06;;;6.57;64.82
40982;BME280;26708;50.304;19.028;2023-04-02T11:31:06;98129.44;;;6.58;64.70
40982;BME280;26708;50.304;19.028;2023-04-02T11:33:34;98129.44;;;6.58;64.64
40982;BME280;26708;50.304;19.028;2023-04-02T11:35:46;98131.97;;;6.48;64.24
40982;BME280;26708;50.304;19.028;2023-04-02T11:37:52;98130.19;;;6.44;64.29
40982;BME280;26708;50.304;19.028;2023-04-02T11:39:59;98136.25;;;6.40;64.21
40982;BME280;26708;50.304;19.028;2023-04-02T11:42:22;98136.22;;;6.38;64.85
40982;BME280;26708;50.304;19.028;2023-04-02T11:44:30;98138.81;;;6.38;64.68
40982;BME280;26708;50.304;19.028;2023-04-02T11:46:40;98134.50;;;6.40;65.21
40982;BME280;26708;50.304;19.028;2023-04-02T11:48:48;98152.66;;;6.36;64.86